createdAt,value
2018-02-16T00:00:23.634Z,32.50
2018-02-16T00:02:51.118Z,31.33
2018-02-16T00:05:18.671Z,31.97
2018-02-16T00:07:46.149Z,32.13
2018-02-16T00:10:13.658Z,32.67
2018-02-16T00:12:41.296Z,30.53
2018-02-16T00:15:08.808Z,33.17
2018-02-16T00:17:36.293Z,32.70
2018-02-16T00:20:03.793Z,32.27
2018-02-16T00:22:31.288Z,31.83
2018-02-16T00:24:58.820Z,31.03
2018-02-16T00:27:26.326Z,32.00
2018-02-16T00:29:53.826Z,33.13
2018-02-16T00:32:21.324Z,32.50
2018-02-16T00:34:48.840Z,32.37
2018-02-16T00:37:16.333Z,31.47
2018-02-16T00:39:43.837Z,33.33
2018-02-16T00:42:11.363Z,31.93
2018-02-16T00:44:38.861Z,32.80
2018-02-16T00:47:06.361Z,33.70
2018-02-16T00:49:33.841Z,33.30
2018-02-16T00:52:01.352Z,34.87
2018-02-16T00:54:28.841Z,32.60
2018-02-16T00:56:56.358Z,33.03
2018-02-16T00:59:23.890Z,33.77
2018-02-16T01:01:51.394Z,32.73
2018-02-16T01:04:18.886Z,32.30
2018-02-16T01:06:46.393Z,33.90
2018-02-16T01:09:13.895Z,32.70
2018-02-16T01:11:41.403Z,31.87
2018-02-16T01:14:08.905Z,33.10
2018-02-16T01:16:36.425Z,32.60
2018-02-16T01:19:03.924Z,33.30
2018-02-16T01:21:31.411Z,33.90
2018-02-16T01:23:58.915Z,31.13
2018-02-16T01:26:26.410Z,30.63
2018-02-16T01:28:53.895Z,33.70
2018-02-16T01:31:21.381Z,32.80
2018-02-16T01:33:48.883Z,34.00
2018-02-16T01:36:17.530Z,33.30
2018-02-16T01:38:45.040Z,31.07
2018-02-16T01:41:12.533Z,31.87
2018-02-16T01:43:40.033Z,31.17
2018-02-16T01:46:07.552Z,32.70
2018-02-16T01:48:35.050Z,31.23
2018-02-16T01:51:02.551Z,33.67
2018-02-16T01:53:30.036Z,31.40
2018-02-16T01:55:57.541Z,34.87
2018-02-16T01:58:25.039Z,32.33
2018-02-16T02:00:52.532Z,34.13
2018-02-16T02:03:20.015Z,34.93
2018-02-16T02:05:47.513Z,33.17
2018-02-16T02:08:15.026Z,34.00
2018-02-16T02:10:42.524Z,33.47
2018-02-16T02:13:10.012Z,31.87
2018-02-16T02:15:37.531Z,33.03
2018-02-16T02:18:05.026Z,34.63
2018-02-16T02:20:32.529Z,33.03
2018-02-16T02:23:00.016Z,32.37
2018-02-16T02:25:27.490Z,33.70
2018-02-16T02:27:55.005Z,32.93
2018-02-16T02:30:22.508Z,33.73
2018-02-16T02:32:50.048Z,33.23
2018-02-16T02:35:17.588Z,33.07
2018-02-16T02:37:45.077Z,32.10
2018-02-16T02:40:12.568Z,32.40
2018-02-16T02:42:40.078Z,33.60
2018-02-16T02:45:07.565Z,32.63
2018-02-16T02:47:35.103Z,32.50
2018-02-16T02:50:02.605Z,31.30
2018-02-16T02:52:30.121Z,33.47
2018-02-16T02:54:57.625Z,32.50
2018-02-16T02:57:25.135Z,31.73
2018-02-16T02:59:52.628Z,33.30
2018-02-16T03:02:20.128Z,32.70
2018-02-16T03:04:47.829Z,34.40
2018-02-16T03:07:15.302Z,35.10
2018-02-16T03:09:42.783Z,34.20
2018-02-16T03:12:10.292Z,35.27
2018-02-16T03:14:37.798Z,33.37
2018-02-16T03:17:05.305Z,34.70
2018-02-16T03:19:32.796Z,33.00
2018-02-16T03:22:00.265Z,33.17
2018-02-16T03:24:27.753Z,33.60
2018-02-16T03:26:55.233Z,33.07
2018-02-16T03:29:22.734Z,33.57
2018-02-16T03:31:50.221Z,32.67
2018-02-16T03:34:17.713Z,32.57
2018-02-16T03:36:45.210Z,33.33
2018-02-16T03:39:12.704Z,33.50
2018-02-16T03:41:40.199Z,34.70
2018-02-16T03:44:07.897Z,35.37
2018-02-16T03:46:35.427Z,30.40
2018-02-16T03:49:03.301Z,31.50
2018-02-16T03:51:30.769Z,33.93
2018-02-16T03:53:58.268Z,33.33
2018-02-16T03:56:25.771Z,34.07
2018-02-16T03:58:53.268Z,32.93
2018-02-16T04:01:20.788Z,34.07
2018-02-16T04:03:48.276Z,32.93
2018-02-16T04:06:15.746Z,32.60
2018-02-16T04:08:43.222Z,31.73
2018-02-16T04:11:10.726Z,32.30
2018-02-16T04:13:38.209Z,32.27
2018-02-16T04:16:05.694Z,33.03
2018-02-16T04:18:33.211Z,32.33
2018-02-16T04:21:00.681Z,33.37
2018-02-16T04:23:28.201Z,33.73
2018-02-16T04:25:55.706Z,31.67
2018-02-16T04:28:24.016Z,31.07
2018-02-16T04:30:51.771Z,31.67
2018-02-16T04:33:19.280Z,30.33
2018-02-16T04:35:46.779Z,31.70
2018-02-16T04:38:14.274Z,29.93
2018-02-16T04:40:41.770Z,30.53
2018-02-16T04:43:09.284Z,31.00
2018-02-16T04:45:36.783Z,32.03
2018-02-16T04:48:04.287Z,31.37
2018-02-16T04:50:31.779Z,30.37
2018-02-16T04:52:59.306Z,31.40
2018-02-16T04:55:26.762Z,31.50
2018-02-16T04:57:54.276Z,30.30
2018-02-16T05:00:21.841Z,30.97
2018-02-16T05:02:49.359Z,31.73
2018-02-16T05:05:16.861Z,30.40
2018-02-16T05:07:44.433Z,30.43
2018-02-16T05:10:11.942Z,32.60
2018-02-16T05:12:39.474Z,31.23
2018-02-16T05:15:06.992Z,29.73
2018-02-16T05:17:34.520Z,28.67
2018-02-16T05:20:02.131Z,30.63
2018-02-16T05:22:29.717Z,30.67
2018-02-16T05:24:57.237Z,29.93
2018-02-16T05:27:24.764Z,30.00
2018-02-16T05:29:52.274Z,28.50
2018-02-16T05:32:19.859Z,27.83
2018-02-16T05:34:47.393Z,28.90
2018-02-16T05:37:14.886Z,31.00
2018-02-16T05:39:42.445Z,29.83
2018-02-16T05:42:09.970Z,27.83
2018-02-16T05:44:37.558Z,31.30
2018-02-16T05:47:05.545Z,32.77
2018-02-16T05:49:33.113Z,31.93
2018-02-16T05:52:00.649Z,31.87
2018-02-16T05:54:28.175Z,33.10
2018-02-16T05:56:55.771Z,34.63
2018-02-16T05:59:23.277Z,33.40
2018-02-16T06:01:50.874Z,34.40
2018-02-16T06:04:18.742Z,30.83
2018-02-16T06:06:46.288Z,32.90
2018-02-16T06:09:13.813Z,32.37
2018-02-16T06:11:41.360Z,32.67
2018-02-16T06:14:08.920Z,32.17
2018-02-16T06:16:36.422Z,31.67
2018-02-16T06:19:03.932Z,30.77
2018-02-16T06:21:31.445Z,32.27
2018-02-16T06:23:58.969Z,30.63
2018-02-16T06:26:27.617Z,32.53
2018-02-16T06:28:55.191Z,32.23
2018-02-16T06:31:22.698Z,31.80
2018-02-16T06:33:50.319Z,31.63
2018-02-16T06:36:17.824Z,32.97
2018-02-16T06:38:45.400Z,32.20
2018-02-16T06:41:12.918Z,29.80
2018-02-16T06:43:40.508Z,30.20
2018-02-16T06:46:08.009Z,31.80
2018-02-16T06:48:35.572Z,30.90
2018-02-16T06:51:03.085Z,32.30
2018-02-16T06:53:30.610Z,31.50
2018-02-16T06:55:58.137Z,32.40
2018-02-16T06:58:25.649Z,31.17
2018-02-16T07:00:53.227Z,33.93
2018-02-16T07:03:20.729Z,35.77
2018-02-16T07:05:48.211Z,36.40
2018-02-16T07:08:15.748Z,34.50
2018-02-16T07:10:43.245Z,35.50
2018-02-16T07:13:10.769Z,34.57
2018-02-16T07:15:38.302Z,33.27
2018-02-16T07:18:05.822Z,32.97
2018-02-16T07:20:33.337Z,32.47
2018-02-16T07:23:00.880Z,36.33
2018-02-16T07:25:28.443Z,35.27
2018-02-16T07:27:55.974Z,34.50
2018-02-16T07:30:23.497Z,33.53
2018-02-16T07:32:51.030Z,34.87
2018-02-16T07:35:18.600Z,34.60
2018-02-16T07:37:46.147Z,34.87
2018-02-16T07:40:13.672Z,34.93
2018-02-16T07:42:41.197Z,32.97
2018-02-16T07:45:08.729Z,35.33
2018-02-16T07:47:36.213Z,33.73
2018-02-16T07:50:03.765Z,34.63
2018-02-16T07:52:31.311Z,35.77
2018-02-16T07:54:59.066Z,34.77
2018-02-16T07:57:26.614Z,34.10
2018-02-16T07:59:54.174Z,34.03
2018-02-16T08:02:21.706Z,32.93
2018-02-16T08:04:49.232Z,33.53
2018-02-16T08:07:16.736Z,35.17
2018-02-16T08:09:44.284Z,33.07
2018-02-16T08:12:11.797Z,35.47
2018-02-16T08:14:39.320Z,35.53
2018-02-16T08:17:06.836Z,34.50
2018-02-16T08:19:34.328Z,33.00
2018-02-16T08:22:01.830Z,33.40
2018-02-16T08:24:29.352Z,34.10
2018-02-16T08:26:56.935Z,33.83
2018-02-16T08:29:24.425Z,31.70
2018-02-16T08:31:51.928Z,32.00
2018-02-16T08:34:19.422Z,30.37
2018-02-16T08:36:46.945Z,30.30
2018-02-16T08:39:14.480Z,28.97
2018-02-16T08:41:42.025Z,29.10
2018-02-16T08:44:09.567Z,29.73
2018-02-16T08:46:37.131Z,27.93
2018-02-16T08:49:04.620Z,29.03
2018-02-16T08:51:32.174Z,27.23
2018-02-16T08:53:59.701Z,26.67
2018-02-16T08:56:27.202Z,26.70
2018-02-16T08:58:54.724Z,25.83
2018-02-16T09:01:22.240Z,25.50
2018-02-16T09:03:49.767Z,25.97
2018-02-16T09:06:17.307Z,24.73
2018-02-16T09:08:44.789Z,25.40
2018-02-16T09:11:12.335Z,24.67
2018-02-16T09:13:39.864Z,24.70
2018-02-16T09:16:07.373Z,23.87
2018-02-16T09:18:34.917Z,24.53
2018-02-16T09:21:03.510Z,23.77
2018-02-16T09:23:31.086Z,22.53
2018-02-16T09:25:58.698Z,23.67
2018-02-16T09:28:26.196Z,24.03
2018-02-16T09:30:53.743Z,23.37
2018-02-16T09:33:21.235Z,22.13
2018-02-16T09:35:50.061Z,21.97
2018-02-16T09:38:17.585Z,20.63
2018-02-16T09:40:45.177Z,20.77
2018-02-16T09:43:12.679Z,19.93
2018-02-16T09:45:40.228Z,20.43
2018-02-16T09:48:07.749Z,20.60
2018-02-16T09:50:35.256Z,20.00
2018-02-16T09:53:02.808Z,20.27
2018-02-16T09:55:30.323Z,19.10
2018-02-16T09:57:57.829Z,20.30
2018-02-16T10:00:25.428Z,19.77
2018-02-16T10:02:52.929Z,20.30
2018-02-16T10:05:20.417Z,20.23
2018-02-16T10:07:47.949Z,20.37
2018-02-16T10:10:15.438Z,19.53
2018-02-16T10:12:42.968Z,18.63
2018-02-16T10:15:10.492Z,19.87
2018-02-16T10:17:38.038Z,20.00
2018-02-16T10:20:05.526Z,21.10
2018-02-16T10:22:33.051Z,20.13
2018-02-16T10:25:00.602Z,20.37
2018-02-16T10:27:28.203Z,19.27
2018-02-16T10:29:55.780Z,21.97
2018-02-16T10:32:23.381Z,19.40
2018-02-16T10:34:50.897Z,20.43
2018-02-16T10:37:18.415Z,21.33
2018-02-16T10:39:45.953Z,20.17
2018-02-16T10:42:13.472Z,20.47
2018-02-16T10:44:40.985Z,19.33
2018-02-16T10:47:08.510Z,19.93
2018-02-16T10:49:35.989Z,19.83
2018-02-16T10:52:05.152Z,17.63
2018-02-16T10:54:32.688Z,18.33
2018-02-16T10:57:00.185Z,18.13
2018-02-16T10:59:27.701Z,19.17
2018-02-16T11:02:00.862Z,19.23
2018-02-16T11:04:33.959Z,18.43
2018-02-16T11:07:07.014Z,17.57
2018-02-16T11:09:34.552Z,18.13
2018-02-16T11:12:02.097Z,18.03
2018-02-16T11:14:29.603Z,17.97
2018-02-16T11:16:57.128Z,17.73
2018-02-16T11:19:24.653Z,17.90
2018-02-16T11:21:52.147Z,18.73
2018-02-16T11:24:19.669Z,17.17
2018-02-16T11:26:47.179Z,15.47
2018-02-16T11:29:14.716Z,16.10
2018-02-16T11:31:43.206Z,17.07
2018-02-16T11:34:10.787Z,18.17
2018-02-16T11:36:38.314Z,18.03
2018-02-16T11:39:05.869Z,18.47
2018-02-16T11:41:33.781Z,16.83
2018-02-16T11:44:01.317Z,18.83
2018-02-16T11:46:28.864Z,18.40
2018-02-16T11:48:56.363Z,16.97
2018-02-16T11:51:23.889Z,17.83
2018-02-16T11:53:51.371Z,17.80
2018-02-16T11:56:18.871Z,17.53
2018-02-16T11:58:46.373Z,18.43
2018-02-16T12:01:13.894Z,18.60
2018-02-16T12:03:41.401Z,18.10
2018-02-16T12:06:08.945Z,17.60
2018-02-16T12:08:36.490Z,17.73
2018-02-16T12:11:04.051Z,17.27
2018-02-16T12:13:31.553Z,16.10
2018-02-16T12:15:59.137Z,16.47
2018-02-16T12:18:28.360Z,16.67
2018-02-16T12:20:55.877Z,14.87
2018-02-16T12:23:23.412Z,14.70
2018-02-16T12:25:51.006Z,13.17
2018-02-16T12:28:18.541Z,13.77
2018-02-16T12:30:46.026Z,14.03
2018-02-16T12:33:13.574Z,16.07
2018-02-16T12:35:41.163Z,14.47
2018-02-16T12:38:08.669Z,16.23
2018-02-16T12:40:36.181Z,14.80
2018-02-16T12:43:03.807Z,14.00
2018-02-16T12:45:31.349Z,14.93
2018-02-16T12:47:58.937Z,16.53
2018-02-16T12:50:27.019Z,15.47
2018-02-16T12:52:54.636Z,14.50
2018-02-16T12:55:22.667Z,14.73
2018-02-16T12:57:50.943Z,13.70
2018-02-16T13:00:19.119Z,14.87
2018-02-16T13:02:46.741Z,15.30
2018-02-16T13:05:14.332Z,13.93
2018-02-16T13:07:41.881Z,13.80
2018-02-16T13:10:09.911Z,15.40
2018-02-16T13:12:37.462Z,14.97
2018-02-16T13:15:05.535Z,15.60
2018-02-16T13:17:33.210Z,16.70
2018-02-16T13:20:00.725Z,14.00
2018-02-16T13:22:28.369Z,15.67
2018-02-16T13:24:56.186Z,15.17
2018-02-16T13:27:23.904Z,15.13
2018-02-16T13:29:51.493Z,15.77
2018-02-16T13:32:19.016Z,16.13
2018-02-16T13:34:46.573Z,15.53
2018-02-16T13:37:14.117Z,15.37
2018-02-16T13:39:41.690Z,15.40
2018-02-16T13:42:09.273Z,13.70
2018-02-16T13:44:36.822Z,13.17
2018-02-16T13:47:04.423Z,15.23
2018-02-16T13:49:32.103Z,14.77
2018-02-16T13:52:00.031Z,14.83
2018-02-16T13:54:27.759Z,14.47
2018-02-16T13:56:55.447Z,13.67
2018-02-16T13:59:23.017Z,13.77
2018-02-16T14:01:50.552Z,13.07
2018-02-16T14:04:19.447Z,12.90
2018-02-16T14:06:48.387Z,13.47
2018-02-16T14:09:16.078Z,13.13
2018-02-16T14:11:45.527Z,12.93
2018-02-16T14:14:13.920Z,12.77
2018-02-16T14:16:42.847Z,12.70
2018-02-16T14:19:11.644Z,11.83
2018-02-16T14:21:39.481Z,12.30
2018-02-16T14:24:07.822Z,12.27
2018-02-16T14:26:35.449Z,12.13
2018-02-16T14:29:03.183Z,11.40
2018-02-16T14:31:31.369Z,12.23
2018-02-16T14:33:58.977Z,12.83
2018-02-16T14:36:26.544Z,10.67
2018-02-16T14:38:54.280Z,10.73
2018-02-16T14:41:21.844Z,10.67
2018-02-16T14:43:50.328Z,10.20
2018-02-16T14:46:17.906Z,10.47
2018-02-16T14:48:46.041Z,8.93
2018-02-16T14:51:13.716Z,9.93
2018-02-16T14:53:41.243Z,8.77
2018-02-16T14:56:08.807Z,9.27
2018-02-16T14:58:36.661Z,9.33
2018-02-16T15:01:04.180Z,9.53
2018-02-16T15:03:31.796Z,9.10
2018-02-16T15:05:59.445Z,8.97
2018-02-16T15:08:27.240Z,9.53
2018-02-16T15:10:54.820Z,9.07
2018-02-16T15:13:22.655Z,8.53
2018-02-16T15:15:50.401Z,9.03
2018-02-16T15:18:18.063Z,8.10
2018-02-16T15:20:45.673Z,9.20
2018-02-16T15:23:14.309Z,9.37
2018-02-16T15:25:42.085Z,9.00
2018-02-16T15:28:09.969Z,8.73
2018-02-16T15:30:37.661Z,9.40
2018-02-16T15:33:05.491Z,9.13
2018-02-16T15:35:33.275Z,8.87
2018-02-16T15:38:01.145Z,9.50
2018-02-16T15:40:28.886Z,9.53
2018-02-16T15:42:56.430Z,9.50
2018-02-16T15:45:24.056Z,8.57
2018-02-16T15:47:51.590Z,9.33
2018-02-16T15:50:19.145Z,8.47
2018-02-16T15:52:46.748Z,8.70
2018-02-16T15:55:14.323Z,8.60
2018-02-16T15:57:41.885Z,9.33
2018-02-16T16:00:09.448Z,11.10
2018-02-16T16:02:37.077Z,9.83
2018-02-16T16:05:04.590Z,8.50
2018-02-16T16:07:32.241Z,8.67
2018-02-16T16:09:59.823Z,10.17
2018-02-16T16:12:28.387Z,8.60
2018-02-16T16:14:55.986Z,8.83
2018-02-16T16:17:23.617Z,9.67
2018-02-16T16:19:51.262Z,8.57
2018-02-16T16:22:18.850Z,9.97
2018-02-16T16:24:46.401Z,8.97
2018-02-16T16:27:13.980Z,10.30
2018-02-16T16:29:41.458Z,9.87
2018-02-16T16:32:08.964Z,9.47
2018-02-16T16:34:36.519Z,9.13
2018-02-16T16:37:04.056Z,9.30
2018-02-16T16:39:31.547Z,10.23
2018-02-16T16:41:59.099Z,9.57
2018-02-16T16:44:26.970Z,9.50
2018-02-16T16:46:54.524Z,9.80
2018-02-16T16:49:22.061Z,9.40
2018-02-16T16:51:49.650Z,10.20
2018-02-16T16:54:17.224Z,9.43
2018-02-16T16:56:44.748Z,9.23
2018-02-16T16:59:12.282Z,8.93
2018-02-16T17:01:39.805Z,9.63
2018-02-16T17:04:07.364Z,10.00
2018-02-16T17:06:34.854Z,9.43
2018-02-16T17:09:02.481Z,9.37
2018-02-16T17:11:30.018Z,8.80
2018-02-16T17:13:57.573Z,8.73
2018-02-16T17:16:25.166Z,9.50
2018-02-16T17:18:52.707Z,8.10
2018-02-16T17:21:20.280Z,8.63
2018-02-16T17:23:47.819Z,8.77
2018-02-16T17:26:15.329Z,8.67
2018-02-16T17:28:44.570Z,9.30
2018-02-16T17:31:12.080Z,9.30
2018-02-16T17:33:39.689Z,8.67
2018-02-16T17:36:07.198Z,8.07
2018-02-16T17:38:34.830Z,8.60
2018-02-16T17:41:02.395Z,8.63
2018-02-16T17:43:30.068Z,9.23
2018-02-16T17:45:57.732Z,8.50
2018-02-16T17:48:25.347Z,9.00
2018-02-16T17:50:52.884Z,9.80
2018-02-16T17:53:20.540Z,10.20
2018-02-16T17:55:48.158Z,10.17
2018-02-16T17:58:15.838Z,10.63
2018-02-16T18:00:43.583Z,9.97
2018-02-16T18:03:19.623Z,10.37
2018-02-16T18:05:47.168Z,9.70
2018-02-16T18:08:14.937Z,9.50
2018-02-16T18:10:42.552Z,10.20
2018-02-16T18:13:10.984Z,9.50
2018-02-16T18:15:38.463Z,9.80
2018-02-16T18:18:05.971Z,9.63
2018-02-16T18:20:33.457Z,10.03
2018-02-16T18:23:00.982Z,10.03
2018-02-16T18:25:28.843Z,10.10
2018-02-16T18:27:57.909Z,10.60
2018-02-16T18:43:20.976Z,9.03
2018-02-16T18:45:48.935Z,8.57
2018-02-16T18:48:16.564Z,8.57
2018-02-16T18:50:44.376Z,10.23
2018-02-16T19:06:07.177Z,8.60
2018-02-16T19:08:34.941Z,9.27
2018-02-16T19:11:02.709Z,9.70
2018-02-16T19:13:30.492Z,9.13
2018-02-16T19:16:01.502Z,9.60
2018-02-16T19:18:29.200Z,10.53
2018-02-16T19:20:57.055Z,9.77
2018-02-16T19:23:24.949Z,10.83
2018-02-16T19:25:52.704Z,10.70
2018-02-16T19:28:20.283Z,10.67
2018-02-16T19:30:47.876Z,10.23
2018-02-16T19:33:15.482Z,10.47
2018-02-16T19:35:43.215Z,9.17
2018-02-16T19:38:10.740Z,8.53
2018-02-16T19:40:38.368Z,9.53
2018-02-16T19:43:05.957Z,9.23
2018-02-16T19:45:33.597Z,9.67
2018-02-16T19:48:01.257Z,10.03
2018-02-16T19:50:28.889Z,8.93
2018-02-16T19:52:56.552Z,9.30
2018-02-16T19:55:24.082Z,9.10
2018-02-16T19:57:51.665Z,9.00
2018-02-16T20:00:19.217Z,8.20
2018-02-16T20:02:46.987Z,9.37
2018-02-16T20:05:14.700Z,8.77
2018-02-16T20:07:42.410Z,8.37
2018-02-16T20:10:10.021Z,8.40
2018-02-16T20:12:39.070Z,8.53
2018-02-16T20:15:06.822Z,8.73
2018-02-16T20:17:34.473Z,8.57
2018-02-16T20:20:02.267Z,8.90
2018-02-16T20:22:29.910Z,8.40
2018-02-16T20:24:57.472Z,7.97
2018-02-16T20:27:25.015Z,8.37
2018-02-16T20:29:52.606Z,9.27
2018-02-16T20:32:20.354Z,8.90
2018-02-16T20:34:47.953Z,9.37
2018-02-16T20:37:15.481Z,10.13
2018-02-16T20:39:43.122Z,9.43
2018-02-16T20:42:11.005Z,9.00
2018-02-16T20:44:38.578Z,8.07
2018-02-16T20:47:06.213Z,8.07
2018-02-16T20:49:33.789Z,8.40
2018-02-16T20:52:02.940Z,7.93
2018-02-16T20:54:30.497Z,7.90
2018-02-16T20:56:59.082Z,8.57
2018-02-16T20:59:27.342Z,7.63
2018-02-16T21:01:54.846Z,8.40
2018-02-16T21:04:22.339Z,8.80
2018-02-16T21:06:50.173Z,8.73
2018-02-16T21:09:17.736Z,8.80
2018-02-16T21:11:45.393Z,9.10
2018-02-16T21:14:12.951Z,8.83
2018-02-16T21:16:40.460Z,8.87
2018-02-16T21:19:08.944Z,8.57
2018-02-16T21:21:36.599Z,8.63
2018-02-16T21:24:06.595Z,8.07
2018-02-16T21:26:38.728Z,8.27
2018-02-16T21:29:10.395Z,9.23
2018-02-16T21:31:39.318Z,8.97
2018-02-16T21:34:07.342Z,8.93
2018-02-16T21:36:34.837Z,8.53
2018-02-16T21:39:02.368Z,9.10
2018-02-16T21:41:29.933Z,9.73
2018-02-16T21:43:57.474Z,8.60
2018-02-16T21:46:25.210Z,9.43
2018-02-16T21:48:52.739Z,9.03
2018-02-16T21:51:20.276Z,9.17
2018-02-16T21:53:47.933Z,9.03
2018-02-16T21:56:15.559Z,8.93
2018-02-16T21:58:43.076Z,9.80
2018-02-16T22:01:10.608Z,9.63
2018-02-16T22:03:38.278Z,8.97
2018-02-16T22:06:05.781Z,9.63
2018-02-16T22:08:33.296Z,9.47
2018-02-16T22:11:00.909Z,9.40
2018-02-16T22:13:28.439Z,10.43
2018-02-16T22:15:55.981Z,9.17
2018-02-16T22:18:23.787Z,9.27
2018-02-16T22:20:51.301Z,10.40
2018-02-16T22:23:18.973Z,9.77
2018-02-16T22:25:46.593Z,11.00
2018-02-16T22:28:14.159Z,11.43
2018-02-16T22:30:41.656Z,9.70
2018-02-16T22:33:09.194Z,9.00
2018-02-16T22:35:36.736Z,9.40
2018-02-16T22:38:04.301Z,10.53
2018-02-16T22:40:31.800Z,10.23
2018-02-16T22:42:59.299Z,9.97
2018-02-16T22:45:26.762Z,9.50
2018-02-16T22:47:54.374Z,9.57
2018-02-16T22:50:21.999Z,9.73
2018-02-16T22:52:49.658Z,9.93
2018-02-16T22:55:17.256Z,10.53
2018-02-16T22:57:44.777Z,10.83
2018-02-16T23:00:12.402Z,11.20
2018-02-16T23:02:40.032Z,10.10
2018-02-16T23:05:07.542Z,10.50
2018-02-16T23:07:35.032Z,9.37
2018-02-16T23:10:02.517Z,10.63
2018-02-16T23:12:30.033Z,11.40
2018-02-16T23:14:57.526Z,11.70
2018-02-16T23:17:25.036Z,11.77
2018-02-16T23:19:52.514Z,11.17
2018-02-16T23:22:20.004Z,12.60
2018-02-16T23:24:47.481Z,12.47
2018-02-16T23:27:14.964Z,12.80
2018-02-16T23:29:42.445Z,12.33
2018-02-16T23:32:09.924Z,11.90
2018-02-16T23:34:37.425Z,11.67
2018-02-16T23:37:04.925Z,11.43
2018-02-16T23:39:32.406Z,11.27
2018-02-16T23:41:59.881Z,12.07
2018-02-16T23:44:27.325Z,10.97
2018-02-16T23:46:54.808Z,12.20
2018-02-16T23:49:22.302Z,11.50
2018-02-16T23:51:49.804Z,10.97
2018-02-16T23:54:17.298Z,11.23
2018-02-16T23:56:44.793Z,12.23
2018-02-16T23:59:12.287Z,10.80
